Time;durP1;ratioP1;P1;durP2;ratioP2;P2;SDS_P1;SDS_P2;PMS_P1;PMS_P2;Temp;Humidity;BMP_temperature;BMP_pressure;BME280_temperature;BME280_humidity;BME280_pressure;Samples;Min_cycle;Max_cycle;Signal;HPM_P1;HPM_P2
2021/12/20 00:00:11;;;;;;;;;;;;;;;19.06;46.64;100184.94;2075818;28;19953;-41
2021/12/20 00:01:12;;;;;;;;;;;;;;;19.09;46.49;100192.00;2081164;28;19924;-40
2021/12/20 00:02:12;;;;;;;;;;;;;;;19.09;46.56;100192.00;2082570;28;20338;-40
2021/12/20 00:03:14;;;;;;;;;;;;;;;19.09;46.59;100193.88;2075777;28;19917;-40
2021/12/20 00:04:14;;;;;;;;;;;;;;;19.05;46.59;100190.56;2077720;28;19916;-39
2021/12/20 00:05:15;;;;;;;;;;;;;;;19.07;46.57;100185.81;2084834;28;19923;-40
2021/12/20 00:06:15;;;;;;;;;;;;;;;19.06;46.64;100195.03;2082781;28;20046;-40
2021/12/20 00:07:16;;;;;;;;;;;;;;;19.07;46.62;100196.75;2081887;28;20294;-39
2021/12/20 00:08:16;;;;;;;;;;;;;;;19.06;46.55;100193.16;2083881;28;19924;-40
2021/12/20 00:09:16;;;;;;;;;;;;;;;19.06;46.59;100186.84;2081531;28;20222;-40
2021/12/20 00:10:18;;;;;;;;;;;;;;;19.04;46.63;100183.38;2082854;28;19917;-40
2021/12/20 00:11:18;;;;;;;;;;;;;;;19.04;46.61;100180.66;2087902;28;20019;-40
2021/12/20 00:12:19;;;;;;;;;;;;;;;19.05;46.75;100182.34;2088989;28;20221;-40
2021/12/20 00:13:19;;;;;;;;;;;;;;;19.04;46.68;100183.38;2085051;28;20243;-40
2021/12/20 00:14:19;;;;;;;;;;;;;;;19.03;46.70;100181.63;2078559;28;19908;-40
2021/12/20 00:15:20;;;;;;;;;;;;;;;19.03;46.59;100181.63;2080492;28;19915;-40
2021/12/20 00:16:20;;;;;;;;;;;;;;;19.04;46.69;100180.66;2081694;28;20794;-41
2021/12/20 00:17:20;;;;;;;;;;;;;;;19.05;46.64;100183.22;2080509;28;19951;-41
2021/12/20 00:18:21;;;;;;;;;;;;;;;19.08;46.63;100179.31;2078921;28;19920;-39
2021/12/20 00:19:23;;;;;;;;;;;;;;;19.11;46.48;100183.63;2082492;28;19912;-40
2021/12/20 00:20:23;;;;;;;;;;;;;;;19.14;46.41;100183.34;2071179;28;19991;-39
2021/12/20 00:21:23;;;;;;;;;;;;;;;19.15;46.38;100183.19;2081303;28;19924;-39
2021/12/20 00:22:24;;;;;;;;;;;;;;;19.13;46.40;100174.28;2079738;28;19924;-39
2021/12/20 00:23:24;;;;;;;;;;;;;;;19.16;46.43;100193.13;2081637;28;20326;-39
2021/12/20 00:24:24;;;;;;;;;;;;;;;19.15;46.42;100185.06;2079283;28;20045;-39
2021/12/20 00:25:25;;;;;;;;;;;;;;;19.16;46.37;100184.94;2077269;28;20571;-39
2021/12/20 00:26:25;;;;;;;;;;;;;;;19.14;46.31;100181.47;2078081;28;20159;-40
2021/12/20 00:27:25;;;;;;;;;;;;;;;19.15;46.34;100182.34;2077268;28;19921;-40
2021/12/20 00:28:26;;;;;;;;;;;;;;;19.12;46.28;100175.28;2078865;28;19939;-39
2021/12/20 00:29:26;;;;;;;;;;;;;;;19.15;46.29;100174.13;2080333;28;20222;-40
2021/12/20 00:30:26;;;;;;;;;;;;;;;19.14;46.26;100170.56;2081285;28;20476;-40
2021/12/20 00:31:27;;;;;;;;;;;;;;;19.15;46.27;100177.72;2078563;28;19912;-40
2021/12/20 00:32:27;;;;;;;;;;;;;;;19.16;46.19;100174.00;2078833;28;19916;-40
2021/12/20 00:33:33;;;;;;;;;;;;;;;19.15;46.22;100169.53;2080433;28;20764;-39
2021/12/20 00:34:35;;;;;;;;;;;;;;;19.15;46.35;100171.41;2079079;28;20201;-39
2021/12/20 00:35:36;;;;;;;;;;;;;;;19.15;46.20;100172.25;2078385;28;19938;-39
2021/12/20 00:36:36;;;;;;;;;;;;;;;19.15;46.24;100166.78;2083269;28;19905;-39
2021/12/20 00:40:21;;;;;;;;;;;;;;;19.18;46.04;100163.78;2078003;28;19916;-40
2021/12/20 00:41:22;;;;;;;;;;;;;;;19.19;46.05;100167.38;2077073;28;20243;-39
2021/12/20 00:42:22;;;;;;;;;;;;;;;19.19;46.05;100165.50;2077051;28;19962;-39
2021/12/20 00:43:23;;;;;;;;;;;;;;;19.20;45.94;100159.00;2076973;28;19920;-39
2021/12/20 00:44:23;;;;;;;;;;;;;;;19.21;46.00;100160.75;2077526;28;20129;-39
2021/12/20 00:45:25;;;;;;;;;;;;;;;19.20;46.02;100164.47;2079780;28;19935;-39
2021/12/20 00:46:26;;;;;;;;;;;;;;;19.21;45.98;100154.44;2081865;28;20334;-41
2021/12/20 00:47:26;;;;;;;;;;;;;;;19.21;45.95;100158.00;2084474;28;20278;-40
2021/12/20 00:48:26;;;;;;;;;;;;;;;19.22;45.97;100157.00;2078949;28;20003;-39
2021/12/20 00:49:28;;;;;;;;;;;;;;;19.23;45.91;100160.59;2083365;28;20409;-39
2021/12/20 00:50:28;;;;;;;;;;;;;;;19.23;45.95;100164.19;2080258;28;20295;-40
2021/12/20 00:51:29;;;;;;;;;;;;;;;19.25;45.81;100162.16;2080760;28;19916;-41
2021/12/20 00:52:29;;;;;;;;;;;;;;;19.27;45.85;100159.28;2078352;28;19926;-40
2021/12/20 00:53:29;;;;;;;;;;;;;;;19.27;45.81;100160.13;2079940;28;20453;-41
2021/12/20 00:54:30;;;;;;;;;;;;;;;19.27;45.83;100165.59;2082443;28;19912;-41
2021/12/20 00:55:30;;;;;;;;;;;;;;;19.27;45.80;100162.88;2081129;28;19923;-40
2021/12/20 00:56:30;;;;;;;;;;;;;;;19.31;45.79;100162.59;2078830;28;19917;-42
2021/12/20 00:57:31;;;;;;;;;;;;;;;19.28;45.93;100156.41;2077621;28;19951;-41
2021/12/20 00:58:31;;;;;;;;;;;;;;;19.30;45.79;100158.97;2077874;28;19917;-41
2021/12/20 00:59:31;;;;;;;;;;;;;;;19.30;45.81;100158.13;2083901;28;19916;-39
2021/12/20 01:00:37;;;;;;;;;;;;;;;19.31;45.88;100162.59;2082975;28;20264;-39
2021/12/20 01:01:37;;;;;;;;;;;;;;;19.30;45.99;100163.59;2083445;28;19923;-39
2021/12/20 01:02:37;;;;;;;;;;;;;;;19.31;45.89;100159.88;2084110;28;20548;-40
2021/12/20 01:03:38;;;;;;;;;;;;;;;19.32;46.04;100161.56;2081904;28;19915;-39
2021/12/20 01:04:39;;;;;;;;;;;;;;;19.33;46.05;100163.28;2082766;28;19912;-39
2021/12/20 01:05:39;;;;;;;;;;;;;;;19.32;45.91;100159.69;2081342;28;19913;-40
2021/12/20 01:06:40;;;;;;;;;;;;;;;19.35;45.98;100155.78;2078158;28;19963;-40
2021/12/20 01:07:40;;;;;;;;;;;;;;;19.33;46.00;100158.69;2082691;28;19970;-40
2021/12/20 01:08:41;;;;;;;;;;;;;;;19.33;46.06;100155.06;2078905;28;19917;-40
2021/12/20 01:09:42;;;;;;;;;;;;;;;19.34;46.24;100163.13;2083178;28;19931;-39
2021/12/20 01:10:45;;;;;;;;;;;;;;;19.33;46.28;100164.16;2080911;28;19912;-40
2021/12/20 01:11:51;;;;;;;;;;;;;;;19.33;46.21;100163.28;2078190;28;19916;-40
2021/12/20 01:12:53;;;;;;;;;;;;;;;19.31;46.25;100163.44;2080618;28;19922;-41
2021/12/20 01:13:55;;;;;;;;;;;;;;;19.31;46.19;100165.31;2083172;28;19923;-38
2021/12/20 01:14:59;;;;;;;;;;;;;;;19.31;46.24;100159.88;2076587;28;19917;-38
2021/12/20 01:16:03;;;;;;;;;;;;;;;19.30;46.21;100171.78;2082833;28;19909;-39
2021/12/20 01:17:05;;;;;;;;;;;;;;;19.27;46.18;100160.13;2083945;28;19916;-39
2021/12/20 01:18:06;;;;;;;;;;;;;;;19.27;46.36;100162.88;2078163;28;20028;-39
2021/12/20 01:19:06;;;;;;;;;;;;;;;19.25;46.50;100162.16;2077665;28;19949;-38
2021/12/20 01:20:07;;;;;;;;;;;;;;;19.25;46.59;100158.56;2083611;28;19958;-39
2021/12/20 01:21:08;;;;;;;;;;;;;;;19.25;46.63;100167.63;2081860;28;19928;-39
2021/12/20 01:22:08;;;;;;;;;;;;;;;19.24;46.72;100165.91;2083580;28;20552;-39
2021/12/20 01:23:09;;;;;;;;;;;;;;;19.23;46.81;100163.31;2082880;28;20140;-39
2021/12/20 01:24:09;;;;;;;;;;;;;;;19.23;46.81;100163.31;2084052;28;20193;-39
2021/12/20 01:25:10;;;;;;;;;;;;;;;19.22;46.90;100156.13;2083886;28;19913;-39
2021/12/20 01:26:10;;;;;;;;;;;;;;;19.20;47.02;100153.53;2083695;28;19959;-38
2021/12/20 01:27:10;;;;;;;;;;;;;;;19.20;46.94;100164.47;2083553;28;19924;-38
2021/12/20 01:28:11;;;;;;;;;;;;;;;19.20;47.00;100155.41;2084338;28;19969;-38
2021/12/20 01:29:11;;;;;;;;;;;;;;;19.20;47.13;100158.16;2081960;28;19919;-39
2021/12/20 01:30:12;;;;;;;;;;;;;;;19.20;47.42;100150.81;2083960;28;19963;-39
2021/12/20 01:31:13;;;;;;;;;;;;;;;19.17;47.15;100148.38;2080965;28;19925;-39
2021/12/20 01:32:13;;;;;;;;;;;;;;;19.17;47.26;100148.38;2081398;28;20042;-39
2021/12/20 01:33:14;;;;;;;;;;;;;;;19.18;47.22;100161.06;2085723;28;19970;-39
2021/12/20 01:34:14;;;;;;;;;;;;;;;19.17;47.25;100153.84;2082396;28;19915;-39
2021/12/20 01:35:15;;;;;;;;;;;;;;;19.16;47.31;100163.06;2082528;28;19963;-39
2021/12/20 01:36:15;;;;;;;;;;;;;;;19.17;47.28;100158.47;2083956;28;19908;-38
2021/12/20 01:37:16;;;;;;;;;;;;;;;19.14;47.42;100162.34;2084962;28;19919;-38
2021/12/20 01:38:17;;;;;;;;;;;;;;;19.15;47.44;100161.31;2080497;28;19921;-39
2021/12/20 01:39:17;;;;;;;;;;;;;;;19.14;47.34;100159.63;2081314;28;19994;-40
2021/12/20 01:40:18;;;;;;;;;;;;;;;19.14;47.42;100159.63;2080978;28;19912;-39
2021/12/20 01:41:18;;;;;;;;;;;;;;;19.15;47.31;100160.47;2083436;28;19931;-39
2021/12/20 01:42:20;;;;;;;;;;;;;;;19.14;47.48;100159.63;2085280;28;19914;-39
2021/12/20 01:43:20;;;;;;;;;;;;;;;19.13;47.50;100159.75;2083273;28;19973;-39
2021/12/20 01:44:21;;;;;;;;;;;;;;;19.12;47.40;100156.16;2084081;28;19908;-39
2021/12/20 01:45:23;;;;;;;;;;;;;;;19.12;47.35;100156.16;2085091;28;20142;-39
2021/12/20 01:46:24;;;;;;;;;;;;;;;19.12;47.48;100161.63;2084906;28;19969;-40
2021/12/20 01:47:28;;;;;;;;;;;;;;;19.10;47.61;100158.19;2084981;28;19989;-39
2021/12/20 01:48:30;;;;;;;;;;;;;;;19.10;47.56;100158.19;2086375;28;20000;-39
2021/12/20 01:49:39;;;;;;;;;;;;;;;19.11;47.44;100159.03;2082803;28;19916;-39
2021/12/20 01:52:46;;;;;;;;;;;;;;;19.09;47.67;100161.94;2082881;28;19916;-39
2021/12/20 01:53:46;;;;;;;;;;;;;;;19.09;47.57;100148.28;2080692;28;19947;-39
2021/12/20 01:54:46;;;;;;;;;;;;;;;19.08;47.57;100152.00;2081319;28;19998;-39
2021/12/20 01:55:48;;;;;;;;;;;;;;;19.08;47.63;100154.72;2084063;28;20122;-39
2021/12/20 01:56:48;;;;;;;;;;;;;;;19.08;47.56;100149.28;2080809;28;20250;-39
2021/12/20 01:57:49;;;;;;;;;;;;;;;19.08;47.57;100154.72;2081788;28;20872;-39
2021/12/20 01:58:49;;;;;;;;;;;;;;;19.08;47.66;100154.72;2084198;28;19917;-39
2021/12/20 01:59:49;;;;;;;;;;;;;;;19.08;47.56;100156.63;2085096;28;20744;-39
2021/12/20 02:02:02;;;;;;;;;;;;;;;19.09;47.56;100150.16;2082070;28;19920;-39
2021/12/20 02:03:03;;;;;;;;;;;;;;;19.09;47.63;100151.00;2084439;28;19979;-39
2021/12/20 02:04:07;;;;;;;;;;;;;;;19.09;47.48;100152.88;2085637;28;20319;-39
2021/12/20 02:05:35;;;;;;;;;;;;;;;19.09;47.52;100151.00;2084854;28;19916;-39
2021/12/20 02:06:35;;;;;;;;;;;;;;;19.10;47.58;100158.19;2084284;28;19920;-39
2021/12/20 02:07:49;;;;;;;;;;;;;;;19.11;47.45;100151.72;2087743;28;20307;-39
2021/12/20 02:08:50;;;;;;;;;;;;;;;19.12;47.44;100156.16;2084299;28;20234;-39
2021/12/20 02:09:51;;;;;;;;;;;;;;;19.12;47.49;100160.78;2083964;28;19908;-39
2021/12/20 02:10:55;;;;;;;;;;;;;;;19.12;47.30;100161.63;2085052;28;19973;-39
2021/12/20 02:11:56;;;;;;;;;;;;;;;19.12;47.45;100160.78;2079682;28;20004;-38
2021/12/20 02:12:56;;;;;;;;;;;;;;;19.12;47.36;100156.16;2080267;28;19989;-39
2021/12/20 02:13:57;;;;;;;;;;;;;;;19.13;47.36;100162.50;2083574;28;20362;-39
2021/12/20 02:14:57;;;;;;;;;;;;;;;19.13;47.38;100166.06;2077950;28;20012;-39
2021/12/20 02:15:58;;;;;;;;;;;;;;;19.12;47.36;100158.91;2092542;28;19920;-39
2021/12/20 02:16:58;;;;;;;;;;;;;;;19.13;47.27;100157.88;2083069;28;19916;-39
2021/12/20 02:17:59;;;;;;;;;;;;;;;19.13;47.30;100146.94;2083173;28;19967;-39
2021/12/20 02:19:03;;;;;;;;;;;;;;;19.13;47.36;100160.63;2083394;28;19927;-39
2021/12/20 02:20:04;;;;;;;;;;;;;;;19.12;47.27;100153.44;2079165;28;20311;-39
2021/12/20 02:21:04;;;;;;;;;;;;;;;19.13;47.33;100151.56;2079470;28;19931;-39
2021/12/20 02:22:04;;;;;;;;;;;;;;;19.13;47.29;100154.28;2082837;28;19920;-39
2021/12/20 02:23:06;;;;;;;;;;;;;;;19.13;47.28;100157.88;2083904;28;19927;-39
2021/12/20 02:24:06;;;;;;;;;;;;;;;19.13;47.28;100160.63;2082160;28;19948;-40
2021/12/20 02:25:07;;;;;;;;;;;;;;;19.13;47.21;100151.56;2079007;28;19954;-40
2021/12/20 02:26:09;;;;;;;;;;;;;;;19.12;47.24;100150.72;2080594;28;19999;-40
2021/12/20 02:27:09;;;;;;;;;;;;;;;19.14;47.18;100153.31;2083802;28;19924;-41
2021/12/20 02:28:11;;;;;;;;;;;;;;;19.12;47.16;100155.31;2085781;28;20037;-41
2021/12/20 02:29:11;;;;;;;;;;;;;;;19.14;47.15;100159.63;2082510;28;19917;-41
2021/12/20 02:30:35;;;;;;;;;;;;;;;19.14;47.10;100158.75;2085085;28;20119;-40
2021/12/20 02:37:55;;;;;;;;;;;;;;;18.97;47.46;100152.19;2078862;28;20471;-39
2021/12/20 02:38:56;;;;;;;;;;;;;;;18.95;47.58;100159.66;2084021;28;20041;-38
2021/12/20 02:39:56;;;;;;;;;;;;;;;18.91;47.71;100156.34;2087235;28;19916;-39
2021/12/20 02:41:04;;;;;;;;;;;;;;;18.91;47.80;100152.78;2079877;28;19928;-39
2021/12/20 02:42:05;;;;;;;;;;;;;;;18.87;47.86;100156.81;2079921;28;19958;-39
2021/12/20 02:43:07;;;;;;;;;;;;;;;18.86;47.89;100155.94;2080797;28;19917;-39
2021/12/20 02:44:16;;;;;;;;;;;;;;;18.84;47.84;100156.09;2083409;28;19923;-39
2021/12/20 02:45:17;;;;;;;;;;;;;;;18.82;47.97;100149.94;2078986;28;19909;-39
2021/12/20 02:47:08;;;;;;;;;;;;;;;18.80;47.83;100154.66;2086690;28;19920;-39
2021/12/20 02:47:46;;;;;;;;;;;;;;;18.79;48.10;100147.50;2076183;28;19913;-39
2021/12/20 02:48:46;;;;;;;;;;;;;;;18.78;48.02;100151.22;2085163;28;19916;-39
2021/12/20 02:49:46;;;;;;;;;;;;;;;18.77;48.05;100149.50;2084501;28;19916;-39
2021/12/20 02:50:47;;;;;;;;;;;;;;;18.76;48.01;100150.50;2080687;28;19916;-39
2021/12/20 02:51:50;;;;;;;;;;;;;;;18.76;47.95;100155.97;2085238;28;19916;-39
2021/12/20 02:52:50;;;;;;;;;;;;;;;18.76;48.14;100150.50;2080689;28;19916;-39
2021/12/20 02:53:51;;;;;;;;;;;;;;;18.74;48.04;100152.50;2082237;28;19912;-39
2021/12/20 02:54:52;;;;;;;;;;;;;;;18.74;47.99;100146.16;2085177;28;19913;-38
2021/12/20 02:55:53;;;;;;;;;;;;;;;18.74;48.27;100149.78;2083568;28;19916;-38
2021/12/20 02:56:53;;;;;;;;;;;;;;;18.73;48.29;100145.31;2087297;28;20174;-39
2021/12/20 02:57:54;;;;;;;;;;;;;;;18.72;48.18;100146.31;2080533;28;19932;-39
2021/12/20 02:58:54;;;;;;;;;;;;;;;18.72;48.27;100146.31;2085589;28;19917;-39
2021/12/20 02:59:55;;;;;;;;;;;;;;;18.72;48.16;100146.31;2078481;28;19916;-38
2021/12/20 03:00:55;;;;;;;;;;;;;;;18.71;47.97;100144.59;2084530;28;20097;-39
2021/12/20 03:01:58;;;;;;;;;;;;;;;18.70;48.19;100140.13;2080622;28;19920;-39
2021/12/20 03:02:58;;;;;;;;;;;;;;;18.70;48.06;100148.34;2081798;28;19916;-39
2021/12/20 03:03:58;;;;;;;;;;;;;;;18.69;48.00;100149.34;2084955;28;19936;-38
2021/12/20 03:04:59;;;;;;;;;;;;;;;18.69;48.09;100143.91;2078314;28;19959;-39
2021/12/20 03:05:59;;;;;;;;;;;;;;;18.68;48.13;100141.28;2080632;28;19916;-39
2021/12/20 03:07:01;;;;;;;;;;;;;;;18.67;48.05;100134.97;2085352;28;19919;-39
2021/12/20 03:08:03;;;;;;;;;;;;;;;18.68;48.13;100135.84;2087366;28;19916;-39
2021/12/20 03:09:04;;;;;;;;;;;;;;;18.66;48.18;100132.38;2083837;28;20176;-38
2021/12/20 03:10:05;;;;;;;;;;;;;;;18.66;48.22;100143.31;2085819;28;19916;-39
2021/12/20 03:11:05;;;;;;;;;;;;;;;18.65;48.10;100137.00;2080780;28;20454;-39
2021/12/20 03:12:07;;;;;;;;;;;;;;;18.65;48.21;100137.00;2084687;28;19920;-39
2021/12/20 03:13:07;;;;;;;;;;;;;;;18.63;48.06;100128.09;2083777;28;19920;-39
2021/12/20 03:14:45;;;;;;;;;;;;;;;18.64;48.06;100132.53;2079711;28;19923;-39
2021/12/20 03:15:35;;;;;;;;;;;;;;;18.63;48.25;100128.09;2083874;28;19920;-39
2021/12/20 03:16:35;;;;;;;;;;;;;;;18.63;48.15;100128.09;2083014;28;19948;-39
2021/12/20 03:17:36;;;;;;;;;;;;;;;18.62;48.08;100115.44;2085641;28;19923;-39
2021/12/20 03:18:36;;;;;;;;;;;;;;;18.62;48.17;100124.50;2084124;28;20305;-39
2021/12/20 03:19:37;;;;;;;;;;;;;;;18.62;48.23;100120.91;2085694;28;19908;-38
2021/12/20 03:20:37;;;;;;;;;;;;;;;18.61;48.23;100120.03;2091504;28;19920;-39
2021/12/20 03:21:37;;;;;;;;;;;;;;;18.61;48.21;100122.75;2092259;28;19952;-39
2021/12/20 03:22:38;;;;;;;;;;;;;;;18.60;48.17;100118.31;2080053;28;19923;-39
2021/12/20 03:23:38;;;;;;;;;;;;;;;18.61;48.00;100125.47;2085186;28;19923;-39
2021/12/20 03:24:39;;;;;;;;;;;;;;;18.60;48.12;100122.91;2084508;28;19917;-39
2021/12/20 03:25:39;;;;;;;;;;;;;;;18.60;48.25;100117.47;2085992;28;19916;-39
2021/12/20 03:26:39;;;;;;;;;;;;;;;18.60;48.01;100117.47;2082236;28;19999;-39
2021/12/20 03:27:40;;;;;;;;;;;;;;;18.60;48.01;100114.72;2077316;28;20414;-39
2021/12/20 03:28:40;;;;;;;;;;;;;;;18.60;48.16;100117.47;2081603;28;20373;-39
2021/12/20 03:29:40;;;;;;;;;;;;;;;18.59;48.17;100113.00;2084005;28;19948;-39
2021/12/20 03:30:41;;;;;;;;;;;;;;;18.59;48.10;100110.25;2082849;28;19951;-39
2021/12/20 03:31:41;;;;;;;;;;;;;;;18.59;47.99;100113.00;2080310;28;19917;-38
2021/12/20 03:32:41;;;;;;;;;;;;;;;18.58;48.03;100103.94;2080959;28;19916;-39
2021/12/20 03:33:42;;;;;;;;;;;;;;;18.58;48.16;100106.69;2076480;28;20311;-38
2021/12/20 03:34:42;;;;;;;;;;;;;;;18.58;48.10;100108.56;2078123;28;19923;-39
2021/12/20 03:35:42;;;;;;;;;;;;;;;18.59;48.18;100113.00;2082157;28;20588;-39
2021/12/20 03:36:43;;;;;;;;;;;;;;;18.57;48.05;100109.53;2078243;28;19917;-39
2021/12/20 03:37:43;;;;;;;;;;;;;;;18.57;48.05;100109.53;2079914;28;19917;-38
2021/12/20 03:38:44;;;;;;;;;;;;;;;18.57;48.10;100106.81;2084891;28;19916;-39
2021/12/20 03:39:44;;;;;;;;;;;;;;;18.57;48.19;100102.22;2084131;28;19924;-39
2021/12/20 03:40:44;;;;;;;;;;;;;;;18.56;48.08;100111.41;2083995;28;19916;-40
2021/12/20 03:41:45;;;;;;;;;;;;;;;18.56;48.15;100105.09;2082362;28;19924;-39
2021/12/20 03:42:46;;;;;;;;;;;;;;;18.55;48.06;100104.25;2082172;28;19919;-40
2021/12/20 03:43:47;;;;;;;;;;;;;;;18.56;47.98;100105.94;2084133;28;20202;-39
2021/12/20 03:44:47;;;;;;;;;;;;;;;18.56;48.20;100099.63;2080985;28;19916;-39
2021/12/20 03:45:50;;;;;;;;;;;;;;;18.54;47.99;100091.59;2081441;28;20123;-39
2021/12/20 03:46:51;;;;;;;;;;;;;;;18.54;47.98;100097.03;2084909;28;19913;-39
2021/12/20 03:47:51;;;;;;;;;;;;;;;18.55;47.97;100097.94;2083095;28;19994;-39
2021/12/20 03:48:52;;;;;;;;;;;;;;;18.55;48.01;100097.94;2088924;28;20354;-39
2021/12/20 03:49:52;;;;;;;;;;;;;;;18.54;48.01;100096.19;2080713;28;19971;-38
2021/12/20 03:50:53;;;;;;;;;;;;;;;18.53;48.07;100086.28;2082135;28;20504;-39
2021/12/20 03:51:53;;;;;;;;;;;;;;;18.53;48.04;100089.03;2078234;28;19917;-39
2021/12/20 03:52:54;;;;;;;;;;;;;;;18.53;48.26;100094.47;2080251;28;19974;-39
2021/12/20 03:53:54;;;;;;;;;;;;;;;18.53;48.05;100089.03;2084744;28;19916;-39
2021/12/20 03:54:55;;;;;;;;;;;;;;;18.53;48.01;100094.47;2084268;28;19916;-39
2021/12/20 03:55:55;;;;;;;;;;;;;;;18.52;48.24;100084.56;2076717;28;20432;-39
2021/12/20 03:56:56;;;;;;;;;;;;;;;18.52;48.14;100087.28;2084538;28;19934;-39
2021/12/20 03:57:56;;;;;;;;;;;;;;;18.52;48.23;100092.75;2083893;28;19997;-39
2021/12/20 03:58:56;;;;;;;;;;;;;;;18.52;48.13;100090.00;2081530;28;20282;-39
2021/12/20 03:59:56;;;;;;;;;;;;;;;18.52;47.97;100090.91;2081826;28;19923;-38
2021/12/20 04:00:58;;;;;;;;;;;;;;;18.51;48.05;100088.31;2079206;28;19909;-39
2021/12/20 04:01:58;;;;;;;;;;;;;;;18.51;48.22;100088.31;2083027;28;19958;-39
2021/12/20 04:02:59;;;;;;;;;;;;;;;18.52;48.05;100090.00;2076961;28;20278;-39
2021/12/20 04:04:01;;;;;;;;;;;;;;;18.51;48.11;100082.84;2079080;28;19999;-39
2021/12/20 04:05:02;;;;;;;;;;;;;;;18.50;47.98;100090.19;2082758;28;19920;-39
2021/12/20 04:06:03;;;;;;;;;;;;;;;18.50;48.15;100086.59;2080764;28;20189;-39
2021/12/20 04:07:04;;;;;;;;;;;;;;;18.49;48.16;100091.16;2083595;28;20125;-39
2021/12/20 04:08:05;;;;;;;;;;;;;;;18.49;48.01;100087.59;2079226;28;19948;-39
2021/12/20 04:09:05;;;;;;;;;;;;;;;18.50;47.99;100092.06;2076611;28;20003;-38
2021/12/20 04:10:06;;;;;;;;;;;;;;;18.49;47.99;100093.03;2085978;28;19916;-44
2021/12/20 04:11:07;;;;;;;;;;;;;;;18.49;48.15;100084.84;2082272;28;20488;-39
2021/12/20 04:12:07;;;;;;;;;;;;;;;18.48;47.97;100085.88;2082821;28;19916;-39
2021/12/20 04:13:09;;;;;;;;;;;;;;;18.48;48.16;100091.34;2077335;28;20165;-38
2021/12/20 04:14:09;;;;;;;;;;;;;;;18.48;48.11;100088.59;2078724;28;20377;-39
2021/12/20 04:15:10;;;;;;;;;;;;;;;18.47;48.16;100090.47;2084570;28;20276;-39
2021/12/20 04:16:10;;;;;;;;;;;;;;;18.48;48.16;100088.59;2084476;28;19946;-39
2021/12/20 04:17:10;;;;;;;;;;;;;;;18.47;48.04;100086.84;2089049;28;20379;-39
2021/12/20 04:18:10;;;;;;;;;;;;;;;18.47;48.13;100085.00;2083749;28;20016;-39
2021/12/20 04:19:11;;;;;;;;;;;;;;;18.47;48.22;100089.59;2084187;28;19922;-39
2021/12/20 04:20:11;;;;;;;;;;;;;;;18.46;48.17;100082.41;2089603;28;20225;-39
2021/12/20 04:21:13;;;;;;;;;;;;;;;18.47;48.00;100084.13;2076611;28;19921;-39
2021/12/20 04:22:15;;;;;;;;;;;;;;;18.47;47.94;100085.00;2077265;28;19928;-38
2021/12/20 04:23:16;;;;;;;;;;;;;;;18.47;48.09;100081.41;2078598;28;19920;-39
2021/12/20 04:24:16;;;;;;;;;;;;;;;18.47;47.86;100084.13;2074367;28;19977;-39
2021/12/20 04:25:17;;;;;;;;;;;;;;;18.46;47.95;100085.16;2081627;28;19922;-39
2021/12/20 04:26:17;;;;;;;;;;;;;;;18.46;48.01;100082.41;2085203;28;19916;-39
2021/12/20 04:27:17;;;;;;;;;;;;;;;18.48;48.02;100083.13;2079760;28;20354;-39
2021/12/20 04:28:18;;;;;;;;;;;;;;;18.47;47.98;100084.13;2084596;28;19943;-39
2021/12/20 04:29:19;;;;;;;;;;;;;;;18.47;47.93;100081.41;2083573;28;19967;-39
2021/12/20 04:30:20;;;;;;;;;;;;;;;18.45;48.02;100078.84;2085010;28;20335;-39
2021/12/20 04:31:20;;;;;;;;;;;;;;;18.45;47.98;100081.56;2084682;28;20490;-38
2021/12/20 04:32:20;;;;;;;;;;;;;;;18.46;47.87;100080.53;2078053;28;19959;-38
2021/12/20 04:33:21;;;;;;;;;;;;;;;18.47;48.05;100084.13;2081928;28;20493;-39
2021/12/20 04:34:21;;;;;;;;;;;;;;;18.46;47.92;100085.16;2085355;28;20227;-39
2021/12/20 04:35:21;;;;;;;;;;;;;;;18.45;48.01;100081.56;2079572;28;19928;-39
2021/12/20 04:36:22;;;;;;;;;;;;;;;18.46;47.98;100080.53;2084439;28;19916;-39
2021/12/20 04:37:22;;;;;;;;;;;;;;;18.46;47.98;100071.50;2083514;28;19980;-39
2021/12/20 04:38:25;;;;;;;;;;;;;;;18.46;48.10;100072.34;2076280;28;19944;-40
2021/12/20 04:39:26;;;;;;;;;;;;;;;18.46;47.97;100077.81;2080573;28;19956;-39
2021/12/20 04:40:27;;;;;;;;;;;;;;;18.46;48.03;100075.09;2081157;28;20152;-39
2021/12/20 04:41:27;;;;;;;;;;;;;;;18.46;48.04;100076.97;2083802;28;20358;-39
2021/12/20 04:42:27;;;;;;;;;;;;;;;18.45;47.89;100078.84;2079392;28;19917;-39
2021/12/20 04:43:27;;;;;;;;;;;;;;;18.45;47.91;100080.69;2082678;28;20770;-38
2021/12/20 04:44:28;;;;;;;;;;;;;;;18.46;47.89;100074.22;2080115;28;20043;-38
2021/12/20 04:45:28;;;;;;;;;;;;;;;18.45;47.85;100076.09;2085271;28;20361;-39
2021/12/20 04:46:29;;;;;;;;;;;;;;;18.46;47.81;100076.97;2080284;28;20733;-39
2021/12/20 04:47:29;;;;;;;;;;;;;;;18.46;47.88;100074.22;2077802;28;19927;-38
2021/12/20 04:48:29;;;;;;;;;;;;;;;18.45;47.96;100064.31;2085447;28;19942;-38
2021/12/20 04:49:30;;;;;;;;;;;;;;;18.46;47.73;100071.50;2083514;28;20330;-38
2021/12/20 04:50:30;;;;;;;;;;;;;;;18.46;47.92;100071.50;2080175;28;19944;-39
2021/12/20 04:51:30;;;;;;;;;;;;;;;18.46;47.85;100074.22;2077091;28;19920;-39
2021/12/20 04:52:31;;;;;;;;;;;;;;;18.45;47.86;100067.91;2080938;28;19916;-38
2021/12/20 04:53:31;;;;;;;;;;;;;;;18.47;47.87;100067.75;2084454;28;20387;-39
2021/12/20 04:54:32;;;;;;;;;;;;;;;18.46;47.80;100076.97;2081954;28;20003;-38
2021/12/20 04:55:32;;;;;;;;;;;;;;;18.46;47.73;100076.97;2085103;28;20428;-38
2021/12/20 04:56:33;;;;;;;;;;;;;;;18.46;47.92;100074.22;2082022;28;20391;-39
2021/12/20 04:57:33;;;;;;;;;;;;;;;18.46;47.69;100071.50;2084754;28;19909;-38
2021/12/20 04:58:33;;;;;;;;;;;;;;;18.46;47.86;100076.97;2085003;28;19920;-38
2021/12/20 04:59:34;;;;;;;;;;;;;;;18.46;47.81;100071.50;2082798;28;19917;-38
2021/12/20 05:00:35;;;;;;;;;;;;;;;18.46;47.82;100076.97;2083197;28;20523;-39
2021/12/20 05:01:35;;;;;;;;;;;;;;;18.46;47.70;100074.22;2085019;28;19908;-39
2021/12/20 05:02:36;;;;;;;;;;;;;;;18.45;47.62;100075.22;2084074;28;19916;-39
2021/12/20 05:03:36;;;;;;;;;;;;;;;18.43;47.50;100073.50;2084088;28;19950;-39
2021/12/20 05:04:36;;;;;;;;;;;;;;;18.46;47.80;100075.09;2084745;28;19989;-39
2021/12/20 05:05:37;;;;;;;;;;;;;;;18.46;47.76;100079.69;2080108;28;20008;-39
2021/12/20 05:06:37;;;;;;;;;;;;;;;18.47;47.81;100081.41;2085867;28;19952;-39
2021/12/20 05:07:39;;;;;;;;;;;;;;;18.45;47.85;100076.09;2079612;28;20300;-39
2021/12/20 05:08:47;;;;;;;;;;;;;;;18.45;47.70;100075.22;2077406;28;19916;-38
2021/12/20 05:09:48;;;;;;;;;;;;;;;18.43;47.67;100068.06;2079457;28;20008;-38
2021/12/20 05:10:48;;;;;;;;;;;;;;;18.46;47.77;100071.50;2080363;28;19923;-40
2021/12/20 05:11:57;;;;;;;;;;;;;;;18.46;47.74;100074.22;2083156;28;19915;-39
2021/12/20 05:12:59;;;;;;;;;;;;;;;18.45;47.62;100070.66;2082612;28;20343;-39
2021/12/20 05:14:00;;;;;;;;;;;;;;;18.45;47.80;100064.31;2079218;28;19916;-39
2021/12/20 05:15:01;;;;;;;;;;;;;;;18.46;47.63;100071.50;2077584;28;19920;-39
2021/12/20 05:16:02;;;;;;;;;;;;;;;18.46;47.70;100075.09;2079337;28;20404;-39
2021/12/20 05:17:02;;;;;;;;;;;;;;;18.47;47.78;100075.94;2084324;28;20432;-38
2021/12/20 05:18:04;;;;;;;;;;;;;;;18.46;47.58;100076.97;2084160;28;20281;-39
2021/12/20 05:19:04;;;;;;;;;;;;;;;18.48;47.59;100080.41;2083725;28;19923;-39
2021/12/20 05:20:05;;;;;;;;;;;;;;;18.47;47.50;100074.09;2083462;28;19940;-38
2021/12/20 05:21:05;;;;;;;;;;;;;;;18.47;47.45;100073.22;2083557;28;19923;-39
2021/12/20 05:22:06;;;;;;;;;;;;;;;18.48;47.62;100080.41;2083142;28;19913;-38
2021/12/20 05:23:07;;;;;;;;;;;;;;;18.48;47.38;100075.81;2084053;28;19908;-39
2021/12/20 05:24:08;;;;;;;;;;;;;;;18.48;47.36;100080.41;2079504;28;19922;-39
2021/12/20 05:25:09;;;;;;;;;;;;;;;18.48;47.37;100074.94;2088469;28;19931;-38
2021/12/20 05:26:09;;;;;;;;;;;;;;;18.48;47.52;100073.06;2084577;28;19916;-38